Time;durP1;ratioP1;P1;durP2;ratioP2;P2;SDS_P1;SDS_P2;PMS_P1;PMS_P2;Temp;Humidity;BMP_temperature;BMP_pressure;BME280_temperature;BME280_humidity;BME280_pressure;Samples;Min_cycle;Max_cycle;Signal;HPM_P1;HPM_P2
2022/07/11 00:02:04;;;;;;;1.42;1.42;;;;;;;22.20;56.59;98075.19;5021763;28;20187;-66
2022/07/11 00:04:29;;;;;;;3.03;1.42;;;;;;;22.27;53.94;98074.22;5022888;28;20197;-65
2022/07/11 00:06:55;;;;;;;2.28;1.38;;;;;;;22.32;53.82;98073.69;5011523;28;20182;-65
2022/07/11 00:09:21;;;;;;;1.30;1.20;;;;;;;22.44;52.91;98067.75;5020275;28;20226;-65
2022/07/11 00:11:47;;;;;;;1.50;1.40;;;;;;;22.31;54.50;98066.78;5015982;28;20189;-65
2022/07/11 00:14:12;;;;;;;1.10;1.10;;;;;;;22.35;52.88;98063.59;4997709;28;20193;-66
2022/07/11 00:16:38;;;;;;;2.17;1.40;;;;;;;22.38;53.68;98067.69;4999339;28;20175;-65
2022/07/11 00:19:05;;;;;;;1.45;1.35;;;;;;;22.42;52.82;98071.56;5017757;28;20263;-66
2022/07/11 00:21:30;;;;;;;1.50;1.40;;;;;;;22.50;52.26;98067.00;5023385;28;20622;-65
2022/07/11 00:23:56;;;;;;;1.52;1.42;;;;;;;22.56;51.94;98065.47;5018214;28;20174;-66
2022/07/11 00:26:22;;;;;;;1.30;1.30;;;;;;;22.24;52.82;98065.88;5020572;28;20264;-66
2022/07/11 00:28:47;;;;;;;1.40;1.20;;;;;;;22.14;54.27;98068.03;5018342;28;20278;-66
2022/07/11 00:31:13;;;;;;;2.80;1.17;;;;;;;22.19;53.17;98068.25;5017296;28;20581;-66
2022/07/11 00:33:38;;;;;;;1.60;1.50;;;;;;;22.25;53.21;98063.06;5001777;28;20851;-66
2022/07/11 00:36:04;;;;;;;2.70;1.25;;;;;;;22.33;52.02;98075.31;5017421;28;20190;-66
2022/07/11 00:38:29;;;;;;;2.45;1.30;;;;;;;22.24;53.33;98068.53;5020683;28;20651;-66
2022/07/11 00:40:55;;;;;;;1.30;1.30;;;;;;;22.34;52.13;98069.03;5015086;28;20679;-66
2022/07/11 00:43:33;;;;;;;2.63;1.33;;;;;;;22.40;50.77;98077.03;5016083;28;20186;-65
2022/07/11 00:45:59;;;;;;;2.75;1.48;;;;;;;22.09;53.65;98076.47;5017953;28;20210;-66
2022/07/11 00:48:24;;;;;;;1.33;1.23;;;;;;;22.11;51.92;98077.13;5020187;28;20300;-65
2022/07/11 00:50:50;;;;;;;1.30;1.30;;;;;;;22.18;51.28;98067.47;5014540;28;20193;-65
2022/07/11 00:53:17;;;;;;;1.30;1.20;;;;;;;22.11;53.19;98066.56;5020163;28;20299;-66
2022/07/11 00:55:42;;;;;;;4.57;1.55;;;;;;;22.08;52.79;98047.69;5016380;28;20239;-66
2022/07/11 00:58:08;;;;;;;1.58;1.48;;;;;;;21.82;55.52;98053.44;5017782;28;20185;-65
2022/07/11 01:00:33;;;;;;;2.05;1.20;;;;;;;21.76;53.70;98056.00;5022643;28;20178;-66
2022/07/11 01:02:59;;;;;;;1.88;1.13;;;;;;;21.80;53.30;98063.34;5017557;28;20748;-65
2022/07/11 01:05:25;;;;;;;1.73;1.60;;;;;;;21.66;54.71;98065.94;5026017;28;20646;-65
2022/07/11 01:07:50;;;;;;;1.75;1.40;;;;;;;21.78;53.61;98054.81;5025233;28;20277;-66
2022/07/11 01:10:16;;;;;;;1.30;1.20;;;;;;;21.52;54.92;98059.72;5017234;28;20664;-65
2022/07/11 01:12:42;;;;;;;1.75;1.60;;;;;;;21.58;56.10;98063.41;5015967;28;20284;-65
2022/07/11 01:15:07;;;;;;;1.60;1.30;;;;;;;21.78;53.03;98061.88;5013798;28;20384;-65
2022/07/11 01:17:33;;;;;;;1.60;1.50;;;;;;;21.70;54.14;98069.88;5016179;28;20636;-65
2022/07/11 01:20:00;;;;;;;2.10;1.40;;;;;;;21.61;55.01;98061.22;5017975;28;20217;-65
2022/07/11 01:22:28;;;;;;;1.25;1.20;;;;;;;21.69;54.63;98065.63;5024695;28;20189;-65
2022/07/11 01:24:54;;;;;;;1.52;1.42;;;;;;;21.77;56.12;98073.41;5027142;28;20181;-67
2022/07/11 01:27:19;;;;;;;1.63;1.40;;;;;;;21.42;54.62;98074.13;5020099;28;20216;-66
2022/07/11 01:29:45;;;;;;;3.03;1.35;;;;;;;21.57;53.80;98072.31;5014656;28;20648;-65
2022/07/11 01:32:10;;;;;;;2.25;1.40;;;;;;;21.39;56.72;98071.88;5017286;28;20325;-66
2022/07/11 01:34:35;;;;;;;1.40;1.25;;;;;;;21.37;56.85;98071.22;5023843;28;20281;-67
2022/07/11 01:37:01;;;;;;;1.60;1.50;;;;;;;21.35;57.68;98070.59;5017187;28;20279;-66
2022/07/11 01:39:30;;;;;;;1.60;1.50;;;;;;;21.44;56.82;98077.41;5016595;28;20189;-66
2022/07/11 01:41:58;;;;;;;1.17;1.15;;;;;;;21.45;55.99;98079.03;5020112;28;20190;-68
2022/07/11 01:44:24;;;;;;;3.33;1.50;;;;;;;21.52;56.79;98085.22;5017472;28;20268;-66
2022/07/11 01:46:50;;;;;;;1.85;1.40;;;;;;;21.36;57.02;98080.09;5021095;28;20174;-66
2022/07/11 01:49:15;;;;;;;1.38;1.27;;;;;;;21.53;55.33;98086.84;5008564;28;20272;-67
2022/07/11 01:51:41;;;;;;;1.20;1.10;;;;;;;21.64;54.90;98094.28;5012888;28;20186;-66
2022/07/11 01:54:07;;;;;;;3.72;1.30;;;;;;;21.66;53.84;98089.66;5018876;28;20264;-66
2022/07/11 01:56:33;;;;;;;4.72;1.30;;;;;;;21.69;53.96;98097.22;5019941;28;20612;-65
2022/07/11 01:58:59;;;;;;;1.20;1.10;;;;;;;21.79;53.84;98088.03;5014972;28;20224;-67
2022/07/11 02:01:24;;;;;;;3.05;1.48;;;;;;;21.82;53.65;98082.44;5016806;28;20675;-66
2022/07/11 02:03:50;;;;;;;1.23;1.13;;;;;;;21.78;53.65;98086.41;5018161;28;20190;-65
2022/07/11 02:06:16;;;;;;;1.17;1.17;;;;;;;21.90;53.16;98084.13;5022167;28;20186;-66
2022/07/11 02:08:41;;;;;;;1.10;1.10;;;;;;;21.97;53.26;98085.03;5017625;28;20293;-66
2022/07/11 02:11:07;;;;;;;3.22;1.42;;;;;;;21.90;53.00;98078.84;5020900;28;20181;-66
2022/07/11 02:13:33;;;;;;;3.20;1.48;;;;;;;21.96;53.24;98083.41;5018028;28;20268;-67
2022/07/11 02:15:58;;;;;;;4.63;1.35;;;;;;;21.98;53.01;98086.66;5019192;28;20666;-66
2022/07/11 02:18:24;;;;;;;2.40;1.40;;;;;;;21.99;53.47;98093.56;5021765;28;20288;-65
2022/07/11 02:20:49;;;;;;;1.92;1.08;;;;;;;21.94;53.43;98091.50;5020038;28;20182;-66
2022/07/11 02:23:16;;;;;;;1.67;1.13;;;;;;;22.01;53.43;98099.47;5021688;28;20181;-66
2022/07/11 02:25:42;;;;;;;1.60;1.30;;;;;;;21.98;53.56;98098.00;5025070;28;20181;-67
2022/07/11 02:28:09;;;;;;;1.42;1.35;;;;;;;22.01;53.31;98096.81;5027524;28;20737;-65
2022/07/11 02:30:35;;;;;;;1.65;1.52;;;;;;;21.98;53.92;98103.28;5027117;28;20185;-65
2022/07/11 02:33:00;;;;;;;2.97;1.38;;;;;;;21.92;54.45;98098.75;5019910;28;20202;-65
2022/07/11 02:35:26;;;;;;;4.53;1.50;;;;;;;21.91;54.23;98101.59;5030384;28;20247;-65
2022/07/11 02:37:51;;;;;;;1.40;1.40;;;;;;;21.80;53.64;98107.31;5025301;28;20247;-66
2022/07/11 02:40:17;;;;;;;1.60;1.50;;;;;;;21.90;53.59;98100.75;5018207;28;20186;-64
2022/07/11 02:42:42;;;;;;;1.52;1.42;;;;;;;21.86;53.62;98107.38;5020094;28;20209;-65
2022/07/11 02:45:08;;;;;;;1.30;1.30;;;;;;;21.91;53.35;98101.59;5021536;28;20214;-65
2022/07/11 02:47:39;;;;;;;2.35;1.60;;;;;;;21.94;52.97;98101.22;5017964;28;20181;-65
2022/07/11 02:50:09;;;;;;;1.75;1.65;;;;;;;21.89;53.71;98109.66;5019601;28;20197;-66
2022/07/11 02:52:36;;;;;;;3.33;2.45;;;;;;;21.93;53.42;98107.47;5017863;28;20296;-64
2022/07/11 02:55:01;;;;;;;2.92;1.60;;;;;;;21.85;54.67;98104.97;5013868;28;20189;-66
2022/07/11 02:57:27;;;;;;;1.63;1.52;;;;;;;21.66;54.30;98113.34;5020903;28;20680;-65
2022/07/11 02:59:52;;;;;;;1.75;1.65;;;;;;;21.40;55.49;98097.19;5020593;28;20189;-65
2022/07/11 03:02:18;;;;;;;1.52;1.27;;;;;;;21.27;54.95;98123.31;4998907;28;20240;-65
2022/07/11 03:04:43;;;;;;;1.02;1.02;;;;;;;21.31;54.49;98124.56;5000590;28;20244;-65
2022/07/11 03:07:08;;;;;;;1.65;1.55;;;;;;;21.45;53.34;98126.44;5024468;28;20264;-65
2022/07/11 03:09:34;;;;;;;2.60;1.15;;;;;;;21.57;52.55;98119.72;5018522;28;20186;-65
2022/07/11 03:11:59;;;;;;;1.58;1.48;;;;;;;21.49;53.89;98123.25;5017186;28;20677;-65
2022/07/11 03:14:25;;;;;;;1.17;1.17;;;;;;;21.56;53.18;98128.63;5026204;28;20232;-65
2022/07/11 03:16:50;;;;;;;1.10;1.10;;;;;;;21.57;52.45;98130.25;5020979;28;20192;-66
2022/07/11 03:19:16;;;;;;;2.15;1.30;;;;;;;21.65;52.37;98130.16;5027650;28;20182;-66
2022/07/11 03:21:41;;;;;;;1.45;1.35;;;;;;;21.67;52.53;98136.91;5017599;28;20918;-65
2022/07/11 03:24:06;;;;;;;2.30;1.40;;;;;;;21.77;52.39;98136.63;5018539;28;20184;-67
2022/07/11 03:26:32;;;;;;;1.73;1.45;;;;;;;21.81;52.29;98137.91;5020633;28;20416;-66
2022/07/11 03:28:57;;;;;;;2.45;1.48;;;;;;;21.81;52.71;98132.66;5029263;28;20655;-67
2022/07/11 03:31:23;;;;;;;0.98;0.98;;;;;;;21.78;52.56;98133.84;5015300;28;20192;-67
2022/07/11 03:33:48;;;;;;;1.10;1.10;;;;;;;21.83;51.99;98135.91;5024488;28;20197;-66
2022/07/11 03:36:13;;;;;;;1.40;1.30;;;;;;;21.86;52.62;98146.09;5019488;28;20279;-67
2022/07/11 03:38:39;;;;;;;1.20;1.20;;;;;;;21.92;51.68;98145.38;5021323;28;20178;-66
2022/07/11 03:41:04;;;;;;;3.33;1.00;;;;;;;21.89;51.88;98133.38;5025125;28;20179;-65
2022/07/11 03:43:30;;;;;;;1.25;1.15;;;;;;;21.96;51.85;98142.19;5001728;28;20229;-65
2022/07/11 03:45:56;;;;;;;3.80;1.92;;;;;;;21.99;51.96;98143.63;5018469;28;20182;-65
2022/07/11 03:48:22;;;;;;;4.22;1.55;;;;;;;22.04;51.49;98143.91;5021938;28;20182;-65
2022/07/11 03:50:48;;;;;;;2.25;1.40;;;;;;;22.07;51.85;98148.81;5020934;28;20373;-65
2022/07/11 03:53:13;;;;;;;1.13;1.13;;;;;;;22.08;52.36;98140.72;5018622;28;20248;-65
2022/07/11 03:55:39;;;;;;;2.13;1.20;;;;;;;22.03;52.14;98131.75;5016362;28;20186;-68
2022/07/11 03:58:04;;;;;;;1.63;1.52;;;;;;;22.15;53.19;98151.34;5021043;28;20181;-66
2022/07/11 04:00:31;;;;;;;4.22;1.33;;;;;;;22.22;52.08;98147.81;5017272;28;20193;-66
2022/07/11 04:02:57;;;;;;;2.85;1.08;;;;;;;22.34;52.53;98151.59;5018220;28;20571;-65
2022/07/11 04:05:23;;;;;;;1.38;1.30;;;;;;;22.51;52.56;98146.94;4997653;28;20175;-67
2022/07/11 04:07:48;;;;;;;3.10;1.00;;;;;;;22.67;52.04;98168.63;5018608;28;20686;-66
2022/07/11 04:10:13;;;;;;;2.33;1.42;;;;;;;22.87;50.61;98168.84;5025451;28;20662;-66
2022/07/11 04:12:39;;;;;;;1.88;1.65;;;;;;;22.90;49.45;98168.47;5026492;28;20198;-65
2022/07/11 04:15:06;;;;;;;1.95;1.60;;;;;;;22.96;50.06;98162.44;5015256;28;20232;-66
2022/07/11 04:17:32;;;;;;;1.50;1.40;;;;;;;22.88;50.64;98159.91;5016875;28;20186;-66
2022/07/11 04:19:57;;;;;;;2.47;1.13;;;;;;;22.89;48.33;98177.41;5020193;28;20185;-66
2022/07/11 04:22:23;;;;;;;1.23;1.13;;;;;;;22.80;49.09;98173.25;5021590;28;20175;-65
2022/07/11 04:24:49;;;;;;;1.92;1.10;;;;;;;22.89;49.28;98169.50;5006468;28;20694;-67
2022/07/11 04:27:14;;;;;;;2.95;1.20;;;;;;;22.88;49.89;98171.31;4998117;28;20174;-66
2022/07/11 04:29:40;;;;;;;7.28;2.42;;;;;;;22.85;49.85;98160.31;5000257;28;20182;-66
2022/07/11 04:32:05;;;;;;;1.02;1.02;;;;;;;22.93;48.98;98168.09;5018523;28;20723;-66
2022/07/11 04:34:31;;;;;;;2.35;1.30;;;;;;;22.91;49.08;98172.75;5020343;28;20742;-65
2022/07/11 04:36:57;;;;;;;0.77;0.77;;;;;;;22.98;48.64;98182.38;5020858;28;20620;-65
2022/07/11 04:39:22;;;;;;;1.45;1.15;;;;;;;22.96;48.39;98179.09;5021427;28;20209;-65
2022/07/11 04:41:48;;;;;;;1.67;0.93;;;;;;;22.95;48.36;98185.38;5014868;28;20186;-67
2022/07/11 04:44:13;;;;;;;2.28;1.02;;;;;;;22.90;47.31;98179.03;5017113;28;20231;-68
2022/07/11 04:46:39;;;;;;;1.58;0.98;;;;;;;22.85;47.67;98184.84;4999058;28;20194;-65
2022/07/11 04:49:04;;;;;;;2.75;0.80;;;;;;;22.82;47.62;98184.41;4998342;28;20546;-66
2022/07/11 04:51:30;;;;;;;2.65;1.02;;;;;;;22.89;47.92;98180.84;5002741;28;20182;-67
2022/07/11 04:53:55;;;;;;;1.48;1.00;;;;;;;22.99;46.84;98183.16;5018713;28;20262;-65
2022/07/11 04:56:20;;;;;;;1.73;1.05;;;;;;;23.17;47.64;98191.50;5044425;28;20270;-65
2022/07/11 04:58:46;;;;;;;1.33;1.00;;;;;;;23.41;46.50;98201.66;5028188;28;20173;-64
2022/07/11 05:01:11;;;;;;;1.98;1.10;;;;;;;23.53;46.85;98205.44;5027573;28;20538;-65
2022/07/11 05:03:37;;;;;;;1.10;0.93;;;;;;;23.57;45.25;98209.31;5018608;28;20380;-66
2022/07/11 05:06:04;;;;;;;2.08;1.30;;;;;;;23.59;45.37;98202.03;5021833;28;20217;-65
2022/07/11 05:08:29;;;;;;;0.90;0.90;;;;;;;23.44;45.36;98202.13;5030154;28;20212;-66
2022/07/11 05:10:55;;;;;;;1.30;1.20;;;;;;;23.34;45.33;98198.16;5018281;28;20217;-65
2022/07/11 05:13:21;;;;;;;1.40;0.88;;;;;;;23.30;45.37;98208.28;5020313;28;20198;-65
2022/07/11 05:15:46;;;;;;;0.90;0.90;;;;;;;23.20;45.13;98212.25;5026573;28;20616;-65
2022/07/11 05:18:12;;;;;;;1.20;1.10;;;;;;;23.19;46.01;98216.72;5012098;28;20182;-65
2022/07/11 05:20:37;;;;;;;1.38;0.80;;;;;;;23.21;45.84;98222.63;5012009;28;20182;-66
2022/07/11 05:23:02;;;;;;;2.92;1.20;;;;;;;23.27;45.96;98219.25;5014327;28;20228;-66
2022/07/11 05:25:28;;;;;;;1.23;1.00;;;;;;;23.23;45.54;98211.84;5011487;28;20179;-65
2022/07/11 05:27:53;;;;;;;1.25;1.00;;;;;;;23.27;46.57;98211.31;5011675;28;20325;-65
2022/07/11 05:30:19;;;;;;;0.98;0.80;;;;;;;23.28;46.70;98210.31;5018355;28;20312;-65
2022/07/11 05:32:44;;;;;;;3.53;1.10;;;;;;;23.37;45.74;98213.63;5010118;28;20194;-66
2022/07/11 05:35:10;;;;;;;1.35;0.90;;;;;;;23.37;45.95;98211.78;5011200;28;20178;-66
2022/07/11 05:37:35;;;;;;;1.10;1.05;;;;;;;23.40;46.05;98213.25;5030981;28;20272;-65
2022/07/11 05:40:01;;;;;;;1.55;1.20;;;;;;;23.39;46.28;98212.44;5031983;28;20185;-66
2022/07/11 05:42:27;;;;;;;1.42;1.00;;;;;;;23.55;45.66;98211.34;5032336;28;20181;-66
2022/07/11 05:44:53;;;;;;;1.83;1.05;;;;;;;23.67;45.01;98215.09;5030575;28;20189;-66
2022/07/11 05:47:18;;;;;;;1.67;0.95;;;;;;;23.72;45.37;98212.69;5030397;28;20211;-66
2022/07/11 05:49:43;;;;;;;0.90;0.90;;;;;;;23.73;44.45;98213.31;5031254;28;20651;-66
2022/07/11 05:52:09;;;;;;;1.35;1.25;;;;;;;23.65;44.44;98222.41;5017218;28;20179;-66
2022/07/11 05:54:35;;;;;;;0.85;0.85;;;;;;;23.64;45.10;98216.31;5009640;28;20630;-67
2022/07/11 05:57:03;;;;;;;2.15;1.00;;;;;;;23.67;44.60;98229.13;5020883;28;20182;-66
2022/07/11 05:59:29;;;;;;;1.42;1.05;;;;;;;23.73;45.01;98229.16;5025433;28;20188;-66
2022/07/11 06:01:55;;;;;;;0.98;0.98;;;;;;;23.73;45.35;98224.91;5026678;28;20182;-66
2022/07/11 06:04:20;;;;;;;1.02;0.93;;;;;;;23.81;45.78;98234.31;5010483;28;20204;-66
2022/07/11 06:06:46;;;;;;;2.05;1.30;;;;;;;23.71;44.47;98243.59;5012157;28;20181;-66
2022/07/11 06:09:12;;;;;;;2.42;1.17;;;;;;;23.73;45.26;98246.88;5024042;28;20609;-66
2022/07/11 06:11:38;;;;;;;1.50;0.93;;;;;;;23.75;44.69;98243.00;5015347;28;20178;-66
2022/07/11 06:14:05;;;;;;;2.67;0.90;;;;;;;23.71;45.22;98240.94;5021503;28;20202;-66
2022/07/11 06:16:31;;;;;;;1.02;0.85;;;;;;;23.74;44.92;98241.38;5022675;28;20242;-66
2022/07/11 06:18:57;;;;;;;0.80;0.80;;;;;;;23.85;44.30;98246.13;5013588;28;20188;-66
2022/07/11 06:21:22;;;;;;;1.17;1.10;;;;;;;23.83;43.54;98251.81;5027870;28;20185;-67
2022/07/11 06:23:48;;;;;;;3.38;0.85;;;;;;;23.77;44.04;98249.94;5014398;28;20186;-64
2022/07/11 06:26:15;;;;;;;1.45;0.75;;;;;;;23.83;43.92;98248.16;5013123;28;20708;-65
2022/07/11 06:28:41;;;;;;;2.03;0.80;;;;;;;23.75;44.24;98248.28;5020693;28;20178;-65
2022/07/11 06:31:07;;;;;;;2.92;1.30;;;;;;;23.84;44.64;98254.25;5028136;28;20192;-65
2022/07/11 06:33:34;;;;;;;0.98;0.90;;;;;;;23.73;44.71;98246.03;5012996;28;20199;-65
2022/07/11 06:35:59;;;;;;;2.30;0.93;;;;;;;23.72;45.09;98249.69;5018711;28;20667;-66
2022/07/11 06:38:24;;;;;;;1.00;1.00;;;;;;;23.68;43.16;98247.41;5023874;28;20188;-65
2022/07/11 06:40:50;;;;;;;0.98;0.98;;;;;;;23.68;43.60;98244.78;5014588;28;20246;-65
2022/07/11 06:43:15;;;;;;;2.47;1.10;;;;;;;23.73;43.85;98258.25;5015303;28;20678;-65
2022/07/11 06:45:41;;;;;;;2.45;0.90;;;;;;;23.78;44.54;98268.22;5015059;28;20273;-65
2022/07/11 06:48:07;;;;;;;1.75;0.93;;;;;;;23.71;44.58;98269.19;5011669;28;20186;-65
2022/07/11 06:50:32;;;;;;;2.25;1.20;;;;;;;23.68;45.07;98265.13;5020249;28;20264;-65
2022/07/11 06:52:58;;;;;;;1.17;0.98;;;;;;;23.73;45.08;98267.19;5028709;28;20711;-65
2022/07/11 06:55:24;;;;;;;1.02;1.02;;;;;;;23.82;45.57;98269.50;5023632;28;20185;-65
2022/07/11 06:57:52;;;;;;;1.83;1.17;;;;;;;23.91;45.45;98272.84;5009271;28;20241;-65
2022/07/11 07:00:18;;;;;;;2.20;0.95;;;;;;;23.93;45.36;98266.34;5022758;28;20174;-66
2022/07/11 07:02:44;;;;;;;5.47;1.13;;;;;;;24.00;45.23;98271.69;5011221;28;20644;-66
2022/07/11 07:05:10;;;;;;;1.13;1.05;;;;;;;24.05;45.22;98262.16;5027598;28;20563;-66
2022/07/11 07:07:35;;;;;;;1.00;0.90;;;;;;;24.06;45.15;98268.28;5014732;28;20183;-65
2022/07/11 07:10:01;;;;;;;2.25;1.20;;;;;;;24.04;45.03;98263.19;5019651;28;20271;-65
2022/07/11 07:12:27;;;;;;;1.05;1.02;;;;;;;24.13;45.44;98274.44;5030390;28;20202;-66
2022/07/11 07:14:53;;;;;;;2.25;1.20;;;;;;;24.15;45.46;98265.28;5031488;28;20251;-66
2022/07/11 07:17:19;;;;;;;3.13;1.20;;;;;;;24.27;45.40;98271.69;5019955;28;20517;-65
2022/07/11 07:19:45;;;;;;;1.25;0.75;;;;;;;24.32;43.41;98278.00;5029316;28;20681;-66
2022/07/11 07:22:14;;;;;;;0.80;0.80;;;;;;;24.28;43.67;98268.84;5028188;28;20178;-65
2022/07/11 07:24:40;;;;;;;2.45;0.80;;;;;;;24.33;43.35;98279.63;5021726;28;20189;-66
2022/07/11 07:27:06;;;;;;;1.30;0.80;;;;;;;24.33;44.18;98277.00;5022333;28;20185;-66
2022/07/11 07:29:32;;;;;;;3.50;1.17;;;;;;;24.36;44.08;98281.91;5025586;28;20194;-65
2022/07/11 07:31:59;;;;;;;2.00;0.80;;;;;;;24.42;43.00;98267.91;5032346;28;20596;-66
2022/07/11 07:34:24;;;;;;;3.70;0.95;;;;;;;24.46;42.88;98263.88;5015984;28;20518;-66
2022/07/11 07:36:50;;;;;;;1.00;0.93;;;;;;;24.50;44.16;98270.38;5014589;28;20182;-65
2022/07/11 07:39:15;;;;;;;1.15;0.90;;;;;;;24.55;44.34;98262.66;5017539;28;20699;-66
2022/07/11 07:41:40;;;;;;;2.22;0.90;;;;;;;24.59;42.88;98252.53;5019584;28;20182;-65
2022/07/11 07:44:07;;;;;;;2.08;0.82;;;;;;;24.65;42.79;98255.22;5033777;28;20178;-65
2022/07/11 07:46:33;;;;;;;0.98;0.90;;;;;;;24.68;43.24;98249.53;5033688;28;20182;-66
2022/07/11 07:48:59;;;;;;;2.40;0.95;;;;;;;24.67;43.01;98234.66;5034407;28;20284;-65
2022/07/11 07:51:24;;;;;;;0.90;0.90;;;;;;;24.67;41.33;98247.91;5029522;28;20185;-65
2022/07/11 07:53:50;;;;;;;0.85;0.85;;;;;;;24.75;42.77;98245.09;5017155;28;20577;-66
2022/07/11 07:56:15;;;;;;;2.65;0.80;;;;;;;24.71;42.61;98259.72;5013391;28;20622;-66
2022/07/11 07:58:41;;;;;;;2.47;1.00;;;;;;;24.74;41.78;98256.66;5012866;28;20196;-66
2022/07/11 08:03:51;;;;;;;0.80;0.77;;;;;;;24.74;40.28;98261.97;5014220;28;20673;-65
2022/07/11 08:06:17;;;;;;;0.70;0.70;;;;;;;24.83;40.30;98260.78;5014644;28;20178;-65
2022/07/11 08:08:42;;;;;;;2.15;0.88;;;;;;;24.96;41.39;98276.72;5027322;28;20174;-66
2022/07/11 08:11:07;;;;;;;0.70;0.70;;;;;;;25.02;42.06;98262.69;5032392;28;20177;-65
2022/07/11 08:13:33;;;;;;;2.05;0.80;;;;;;;25.10;42.66;98273.13;5018797;28;20205;-65
2022/07/11 08:15:58;;;;;;;1.00;0.90;;;;;;;25.23;42.33;98262.53;5016622;28;20186;-65
2022/07/11 08:18:24;;;;;;;1.50;0.90;;;;;;;25.28;40.21;98261.97;5013121;28;20175;-65
2022/07/11 08:20:49;;;;;;;0.90;0.90;;;;;;;25.19;41.51;98266.59;5014960;28;20240;-65
2022/07/11 08:23:15;;;;;;;2.03;1.00;;;;;;;25.24;42.00;98263.38;5027145;28;20662;-64
2022/07/11 08:25:40;;;;;;;1.50;1.08;;;;;;;25.33;42.05;98264.84;5024641;28;20662;-66
2022/07/11 08:28:06;;;;;;;1.20;0.88;;;;;;;25.40;41.80;98266.47;5030529;28;20655;-65
2022/07/11 08:30:32;;;;;;;1.20;1.10;;;;;;;25.38;40.76;98263.19;5025796;28;20226;-65
2022/07/11 08:32:57;;;;;;;1.70;1.10;;;;;;;25.38;41.70;98271.16;5020167;28;20189;-65
2022/07/11 08:35:23;;;;;;;2.22;1.00;;;;;;;25.38;41.06;98268.50;5023866;28;20181;-65
2022/07/11 08:37:48;;;;;;;2.95;1.17;;;;;;;25.35;40.36;98263.63;5027982;28;20182;-65
2022/07/11 08:40:14;;;;;;;0.95;0.90;;;;;;;25.43;40.80;98260.75;5011297;28;20182;-66
2022/07/11 08:42:42;;;;;;;3.20;1.25;;;;;;;25.52;40.66;98245.50;5014968;28;20571;-65
2022/07/11 08:45:12;;;;;;;4.95;0.98;;;;;;;25.55;41.53;98258.34;5025608;28;20181;-65
2022/07/11 08:47:39;;;;;;;1.95;0.93;;;;;;;25.59;41.89;98255.06;5018932;28;20186;-66
2022/07/11 08:50:05;;;;;;;1.00;1.00;;;;;;;25.66;42.03;98247.16;5023618;28;20178;-66
2022/07/11 08:52:32;;;;;;;1.35;1.00;;;;;;;25.63;40.53;98244.88;5017649;28;20225;-65
2022/07/11 08:54:58;;;;;;;1.20;0.98;;;;;;;25.68;39.38;98243.28;5023459;28;20750;-65
2022/07/11 08:57:24;;;;;;;1.02;0.95;;;;;;;25.74;40.11;98252.22;5012154;28;20269;-65
2022/07/11 08:59:55;;;;;;;1.25;1.05;;;;;;;25.78;40.25;98242.84;5016463;28;20259;-65
2022/07/11 09:02:21;;;;;;;1.40;1.10;;;;;;;25.72;39.50;98248.97;5029027;28;20178;-65
2022/07/11 09:04:47;;;;;;;1.38;0.90;;;;;;;25.71;40.43;98252.66;5031185;28;20232;-66
2022/07/11 09:07:12;;;;;;;1.25;1.00;;;;;;;25.65;39.33;98243.66;5024671;28;20182;-65
2022/07/11 09:09:38;;;;;;;1.50;1.17;;;;;;;25.52;40.29;98253.44;5018408;28;20182;-65
2022/07/11 09:12:14;;;;;;;0.90;0.90;;;;;;;25.54;40.53;98243.47;5011455;28;20182;-66
2022/07/11 09:14:46;;;;;;;4.95;0.90;;;;;;;25.64;40.74;98235.91;5012951;28;20169;-66
2022/07/11 09:17:11;;;;;;;3.25;1.15;;;;;;;25.74;40.45;98231.84;5026886;28;20666;-66
2022/07/11 09:19:40;;;;;;;3.05;0.90;;;;;;;25.83;39.57;98245.72;5030747;28;20227;-65
2022/07/11 09:27:48;;;;;;;1.65;1.00;;;;;;;25.82;38.30;98246.72;5019315;28;20284;-65
2022/07/11 09:30:24;;;;;;;4.72;0.90;;;;;;;25.91;36.75;98256.13;5026569;28;20178;-66
2022/07/11 09:32:59;;;;;;;2.00;0.80;;;;;;;25.90;36.26;98247.34;5030557;28;20203;-65
2022/07/11 09:35:30;;;;;;;2.10;0.98;;;;;;;26.03;36.25;98246.53;5018249;28;20189;-66
2022/07/11 09:37:56;;;;;;;1.42;1.02;;;;;;;26.16;36.51;98252.63;5027070;28;20184;-66
2022/07/11 09:40:22;;;;;;;1.80;1.70;;;;;;;26.32;36.70;98256.69;5011229;28;20617;-65
2022/07/11 09:42:56;;;;;;;1.23;0.77;;;;;;;26.36;35.59;98260.56;5008341;28;20178;-66
2022/07/11 09:45:24;;;;;;;1.05;0.95;;;;;;;26.42;35.49;98260.53;5027520;28;20244;-68
2022/07/11 09:47:52;;;;;;;0.88;0.80;;;;;;;26.49;35.79;98261.34;5029609;28;20287;-66
2022/07/11 09:50:39;;;;;;;3.55;0.85;;;;;;;26.58;33.83;98251.34;5010702;28;20186;-65
2022/07/11 09:53:13;;;;;;;1.58;0.90;;;;;;;26.58;33.26;98269.94;5016949;28;20279;-66
2022/07/11 09:55:40;;;;;;;0.90;0.90;;;;;;;26.55;34.39;98267.69;5028925;28;20192;-65
2022/07/11 09:58:08;;;;;;;0.98;0.90;;;;;;;26.59;32.16;98272.34;5011559;28;20656;-65
2022/07/11 10:00:35;;;;;;;0.95;0.80;;;;;;;26.61;31.12;98259.69;5018722;28;20197;-65
2022/07/11 10:03:01;;;;;;;1.10;1.00;;;;;;;26.73;32.41;98252.72;5010135;28;20340;-66
2022/07/11 10:05:28;;;;;;;0.68;0.63;;;;;;;26.83;30.75;98260.22;5007648;28;20190;-65
2022/07/11 10:07:54;;;;;;;0.75;0.75;;;;;;;26.77;31.78;98261.06;5010836;28;20190;-65
2022/07/11 10:10:19;;;;;;;1.33;1.25;;;;;;;26.69;31.47;98267.41;5011444;28;20186;-65
2022/07/11 10:12:48;;;;;;;0.70;0.70;;;;;;;26.54;29.60;98260.75;5011697;28;20202;-65
2022/07/11 10:15:16;;;;;;;1.20;0.68;;;;;;;26.65;30.02;98271.50;5010371;28;20193;-65
2022/07/11 10:18:01;;;;;;;1.35;0.85;;;;;;;26.74;29.92;98264.13;5009751;28;20194;-65
2022/07/11 10:20:51;;;;;;;0.70;0.70;;;;;;;26.77;29.36;98266.38;5012566;28;20782;-66
2022/07/11 10:23:33;;;;;;;3.58;0.85;;;;;;;26.95;29.55;98261.97;5015083;28;20188;-65
2022/07/11 10:26:14;;;;;;;0.93;0.75;;;;;;;26.99;29.12;98255.22;5021449;28;20264;-65
2022/07/11 10:28:54;;;;;;;0.65;0.65;;;;;;;27.04;30.27;98257.25;5009906;28;20236;-65
2022/07/11 10:31:21;;;;;;;0.95;0.73;;;;;;;27.12;30.25;98246.38;5012049;28;20624;-66
2022/07/11 10:34:21;;;;;;;0.85;0.70;;;;;;;27.30;30.33;98247.31;5025503;28;20646;-65
2022/07/11 10:36:46;;;;;;;0.82;0.70;;;;;;;27.49;29.67;98249.03;5029704;28;20161;-65
2022/07/11 10:39:16;;;;;;;0.75;0.70;;;;;;;27.59;29.82;98236.06;5022559;28;20251;-66
2022/07/11 10:41:41;;;;;;;1.42;0.63;;;;;;;27.72;29.11;98248.44;5019017;28;20536;-66
2022/07/11 10:44:07;;;;;;;0.65;0.65;;;;;;;27.85;30.04;98240.38;5014910;28;20216;-65
2022/07/11 10:46:35;;;;;;;1.08;0.90;;;;;;;27.92;29.20;98247.28;5015861;28;20216;-66
2022/07/11 10:49:15;;;;;;;0.93;0.82;;;;;;;28.12;29.37;98244.44;5014795;28;20575;-66
2022/07/11 10:51:41;;;;;;;3.20;0.85;;;;;;;28.24;28.81;98251.47;5030273;28;20193;-65
2022/07/11 10:54:26;;;;;;;1.17;0.82;;;;;;;28.48;30.15;98252.47;5025453;28;20221;-66
2022/07/11 10:57:00;;;;;;;4.35;0.80;;;;;;;28.62;28.70;98245.97;5034028;28;20193;-66
2022/07/11 10:59:26;;;;;;;1.13;0.82;;;;;;;28.87;29.46;98252.81;5032522;28;20251;-66
2022/07/11 11:02:01;;;;;;;2.33;0.75;;;;;;;28.93;29.28;98245.78;5020918;28;20190;-66
2022/07/11 11:05:00;;;;;;;4.18;0.80;;;;;;;29.07;29.41;98245.41;5017459;28;20186;-66
2022/07/11 11:07:36;;;;;;;1.73;0.90;;;;;;;29.26;29.49;98251.53;5029504;28;20287;-66
2022/07/11 11:10:18;;;;;;;2.33;1.10;;;;;;;29.41;27.76;98251.91;5030834;28;20239;-66
2022/07/11 11:13:05;;;;;;;1.15;0.70;;;;;;;29.65;28.32;98254.44;5033907;28;20190;-66
2022/07/11 11:15:41;;;;;;;0.90;0.90;;;;;;;29.80;27.93;98246.78;5035054;28;20240;-66
2022/07/11 11:18:22;;;;;;;1.10;1.00;;;;;;;29.75;27.82;98249.34;5029155;28;20693;-66
2022/07/11 11:21:09;;;;;;;0.88;0.85;;;;;;;29.91;28.06;98240.63;5032971;28;20228;-66
2022/07/11 11:23:40;;;;;;;2.70;0.70;;;;;;;29.89;28.31;98242.75;5021387;28;20276;-66
2022/07/11 11:26:06;;;;;;;0.60;0.60;;;;;;;30.07;28.19;98245.28;5034047;28;20231;-66
2022/07/11 11:28:31;;;;;;;1.95;0.98;;;;;;;30.15;28.54;98247.63;5029115;28;20189;-66
2022/07/11 11:30:59;;;;;;;1.17;0.98;;;;;;;30.38;27.91;98250.28;5023104;28;20232;-66
2022/07/11 11:33:29;;;;;;;1.05;0.95;;;;;;;30.46;28.00;98244.59;5015020;28;20273;-66
2022/07/11 11:36:02;;;;;;;2.83;0.82;;;;;;;30.70;27.16;98248.88;5015343;28;20654;-67
2022/07/11 11:38:29;;;;;;;1.98;0.90;;;;;;;30.82;26.71;98249.66;5014058;28;20189;-67
2022/07/11 11:40:55;;;;;;;0.95;0.75;;;;;;;31.00;27.04;98238.78;5031300;28;20181;-67
2022/07/11 11:43:22;;;;;;;2.65;1.00;;;;;;;31.05;26.06;98238.88;5029968;28;20566;-66